Time;durP1;ratioP1;P1;durP2;ratioP2;P2;SDS_P1;SDS_P2;PMS_P1;PMS_P2;Temp;Humidity;BMP_temperature;BMP_pressure;BME280_temperature;BME280_humidity;BME280_pressure;Samples;Min_cycle;Max_cycle;Signal;HPM_P1;HPM_P2
2022/01/29 00:00:51;;;;;;;13.07;3.85;;;12.70;66.50;;;;;;5080751;28;20107;-73
2022/01/29 00:03:17;;;;;;;10.63;2.90;;;12.70;66.60;;;;;;5076128;28;20137;-76
2022/01/29 00:05:43;;;;;;;9.70;3.35;;;12.60;66.60;;;;;;5078081;28;20099;-73
2022/01/29 00:08:09;;;;;;;10.18;2.88;;;12.60;66.70;;;;;;5059962;28;20113;-75
2022/01/29 00:10:35;;;;;;;10.27;3.17;;;12.60;66.80;;;;;;5059977;28;20052;-75
2022/01/29 00:13:00;;;;;;;10.38;3.40;;;12.60;66.90;;;;;;5077946;28;20062;-75
2022/01/29 00:15:26;;;;;;;10.88;2.88;;;12.60;66.90;;;;;;5059766;28;20060;-73
2022/01/29 00:17:51;;;;;;;8.45;2.53;;;12.60;67.00;;;;;;5060398;28;20353;-74
2022/01/29 00:20:17;;;;;;;12.52;3.47;;;12.60;67.00;;;;;;5077169;28;20048;-74
2022/01/29 00:22:43;;;;;;;11.63;3.70;;;12.60;67.70;;;;;;5077686;28;20056;-75
2022/01/29 00:25:10;;;;;;;10.27;3.72;;;12.60;67.10;;;;;;5077126;28;20055;-75
2022/01/29 00:27:36;;;;;;;15.05;3.30;;;12.50;67.10;;;;;;5077128;28;20365;-73
2022/01/29 00:30:08;;;;;;;9.05;3.42;;;12.50;67.20;;;;;;5077383;28;20098;-73
2022/01/29 00:32:35;;;;;;;11.63;3.67;;;12.50;67.30;;;;;;5076002;28;20128;-73
2022/01/29 00:35:01;;;;;;;11.05;3.05;;;12.50;67.40;;;;;;5076559;28;20056;-73
2022/01/29 00:37:26;;;;;;;8.05;2.75;;;12.50;67.30;;;;;;5059530;28;20053;-73
2022/01/29 00:39:52;;;;;;;11.05;3.58;;;12.50;67.60;;;;;;5077013;28;20353;-73
2022/01/29 00:42:18;;;;;;;9.90;3.47;;;12.40;67.60;;;;;;5076580;28;20079;-73
2022/01/29 00:44:45;;;;;;;12.85;3.47;;;12.40;67.70;;;;;;5060015;28;20041;-72
2022/01/29 00:47:12;;;;;;;9.52;2.97;;;12.40;67.80;;;;;;5059041;28;20059;-74
2022/01/29 00:49:38;;;;;;;13.90;3.67;;;12.40;67.80;;;;;;5059297;28;20052;-73
2022/01/29 00:52:04;;;;;;;10.50;3.20;;;12.40;67.90;;;;;;5042362;28;20127;-75
2022/01/29 00:54:29;;;;;;;10.68;3.22;;;12.40;67.90;;;;;;5076559;28;20074;-74
2022/01/29 00:56:55;;;;;;;12.18;3.58;;;12.30;68.00;;;;;;5059165;28;20056;-76
2022/01/29 00:59:21;;;;;;;10.65;2.85;;;12.30;68.20;;;;;;5058874;28;20110;-73
2022/01/29 01:01:47;;;;;;;8.45;2.92;;;12.30;68.20;;;;;;5077070;28;20189;-74
2022/01/29 01:04:12;;;;;;;7.32;3.08;;;12.30;68.30;;;;;;5096784;28;20320;-75
2022/01/29 01:06:38;;;;;;;13.13;3.30;;;12.30;68.30;;;;;;5097114;28;20104;-75
2022/01/29 01:09:04;;;;;;;11.43;4.22;;;12.30;68.30;;;;;;5096755;28;20048;-75
2022/01/29 01:11:29;;;;;;;10.73;4.40;;;12.30;68.50;;;;;;5079576;28;20051;-73
2022/01/29 01:13:55;;;;;;;10.85;4.57;;;12.20;68.60;;;;;;5096467;28;20362;-74
2022/01/29 01:16:21;;;;;;;12.52;3.78;;;12.20;68.60;;;;;;5096584;28;20052;-75
2022/01/29 01:18:48;;;;;;;10.48;4.03;;;12.20;68.70;;;;;;5096491;28;20522;-75
2022/01/29 01:21:14;;;;;;;9.50;4.00;;;12.20;68.80;;;;;;5096582;28;20048;-74
2022/01/29 01:23:40;;;;;;;14.80;3.67;;;12.20;69.10;;;;;;5096576;28;20119;-75
2022/01/29 01:26:06;;;;;;;11.88;3.90;;;12.20;69.20;;;;;;5078248;28;20131;-74
2022/01/29 01:28:32;;;;;;;12.38;4.03;;;12.20;69.20;;;;;;5096536;28;20048;-74
2022/01/29 01:30:58;;;;;;;10.02;3.13;;;12.20;69.20;;;;;;5095885;28;20070;-75
2022/01/29 01:33:24;;;;;;;8.32;3.67;;;12.20;69.20;;;;;;5073929;28;20048;-74
2022/01/29 01:35:54;;;;;;;12.00;4.65;;;12.30;69.30;;;;;;5059135;28;20135;-75
2022/01/29 01:38:35;;;;;;;10.40;3.67;;;12.30;69.40;;;;;;5075996;28;20059;-76
2022/01/29 01:41:06;;;;;;;16.60;4.65;;;12.20;69.50;;;;;;5075773;28;20061;-74
2022/01/29 01:43:33;;;;;;;10.73;3.78;;;12.20;69.60;;;;;;5074861;28;20051;-74
2022/01/29 01:45:58;;;;;;;12.52;4.20;;;12.20;69.80;;;;;;5058092;28;20048;-73
2022/01/29 01:48:24;;;;;;;15.30;4.90;;;12.10;70.00;;;;;;5075804;28;20048;-73
2022/01/29 01:50:50;;;;;;;12.73;4.72;;;12.10;70.20;;;;;;5075583;28;20131;-73
2022/01/29 01:53:17;;;;;;;9.85;4.15;;;12.10;70.30;;;;;;5058001;28;20095;-74
2022/01/29 01:55:42;;;;;;;14.93;4.80;;;12.00;70.40;;;;;;5075253;28;20052;-73
2022/01/29 01:58:08;;;;;;;11.73;4.65;;;12.10;70.70;;;;;;5075344;28;20056;-74
2022/01/29 02:00:34;;;;;;;10.52;4.20;;;12.10;70.70;;;;;;5075837;28;20048;-75
2022/01/29 02:03:00;;;;;;;17.75;4.32;;;12.00;70.70;;;;;;5075068;28;20041;-75
2022/01/29 02:05:25;;;;;;;11.27;4.55;;;12.00;70.70;;;;;;5074758;28;20466;-73
2022/01/29 02:07:51;;;;;;;12.63;4.57;;;12.10;70.70;;;;;;5075468;28;20048;-73
2022/01/29 02:10:18;;;;;;;12.57;4.35;;;12.00;70.80;;;;;;5075648;28;20126;-74
2022/01/29 02:12:50;;;;;;;14.90;5.30;;;12.00;70.90;;;;;;5057743;28;20056;-74
2022/01/29 02:15:18;;;;;;;14.52;4.93;;;12.00;70.90;;;;;;5057287;28;20052;-74
2022/01/29 02:17:45;;;;;;;14.23;4.45;;;12.00;71.00;;;;;;5075384;28;20059;-74
2022/01/29 02:20:12;;;;;;;13.30;4.63;;;12.00;70.90;;;;;;5075501;28;20052;-73
2022/01/29 02:22:42;;;;;;;17.33;4.93;;;12.00;71.00;;;;;;5075519;28;20417;-75
2022/01/29 02:25:31;;;;;;;12.73;4.25;;;12.00;71.10;;;;;;5065048;28;20378;-74
2022/01/29 02:28:02;;;;;;;16.58;5.18;;;12.00;71.20;;;;;;5095329;28;20063;-73
2022/01/29 02:30:30;;;;;;;12.57;4.40;;;12.00;71.30;;;;;;5077735;28;20083;-74
2022/01/29 02:32:57;;;;;;;14.68;4.93;;;11.90;71.20;;;;;;5095847;28;20329;-75
2022/01/29 02:35:24;;;;;;;15.23;4.65;;;11.90;71.20;;;;;;5076972;28;20052;-74
2022/01/29 02:37:52;;;;;;;15.10;4.78;;;12.00;71.20;;;;;;5095143;28;20044;-75
2022/01/29 02:40:19;;;;;;;11.38;4.72;;;11.90;71.20;;;;;;5077324;28;20060;-75
2022/01/29 02:42:45;;;;;;;11.90;4.57;;;11.90;71.30;;;;;;5077484;28;20443;-73
2022/01/29 02:45:11;;;;;;;15.90;5.68;;;11.90;71.50;;;;;;5095307;28;20355;-73
2022/01/29 02:47:37;;;;;;;16.55;5.15;;;11.90;71.60;;;;;;5095005;28;20052;-77
2022/01/29 02:50:03;;;;;;;16.02;6.57;;;11.90;71.60;;;;;;5095532;28;20040;-76
2022/01/29 02:52:29;;;;;;;12.18;4.85;;;11.90;71.70;;;;;;5094953;28;20131;-73
2022/01/29 02:54:54;;;;;;;18.23;5.50;;;11.80;71.70;;;;;;5073124;28;20045;-74
2022/01/29 02:57:20;;;;;;;17.35;5.97;;;11.80;71.90;;;;;;5078886;28;20045;-74
2022/01/29 02:59:46;;;;;;;18.85;5.20;;;11.80;72.00;;;;;;5061259;28;20058;-75
2022/01/29 03:02:12;;;;;;;13.35;5.22;;;11.80;72.10;;;;;;5078930;28;20440;-74
2022/01/29 03:04:37;;;;;;;16.75;5.40;;;11.70;72.10;;;;;;5060928;28;20045;-73
2022/01/29 03:07:03;;;;;;;14.43;6.03;;;11.80;72.30;;;;;;5078857;28;20094;-76
2022/01/29 03:09:29;;;;;;;12.50;5.15;;;11.80;72.30;;;;;;5061011;28;20402;-73
2022/01/29 03:11:56;;;;;;;14.20;5.22;;;11.70;72.30;;;;;;5061287;28;20087;-73
2022/01/29 03:14:22;;;;;;;12.52;5.25;;;11.80;72.20;;;;;;5060831;28;20044;-73
2022/01/29 03:16:48;;;;;;;14.82;5.22;;;11.80;72.90;;;;;;5078704;28;20059;-76
2022/01/29 03:19:13;;;;;;;12.98;6.10;;;11.80;72.30;;;;;;5060714;28;20456;-73
2022/01/29 03:21:39;;;;;;;18.02;6.00;;;11.80;72.30;;;;;;5060616;28;20054;-74
2022/01/29 03:24:05;;;;;;;15.48;5.40;;;11.80;72.40;;;;;;5077936;28;20040;-73
2022/01/29 03:26:31;;;;;;;13.38;5.47;;;11.80;72.40;;;;;;5060868;28;20048;-74
2022/01/29 03:28:57;;;;;;;13.13;5.47;;;11.80;72.30;;;;;;5060313;28;20353;-74
2022/01/29 03:31:26;;;;;;;12.55;5.07;;;11.80;72.40;;;;;;5060812;28;20139;-72
2022/01/29 03:33:53;;;;;;;21.23;5.65;;;11.80;72.60;;;;;;5077659;28;20052;-74
2022/01/29 03:36:19;;;;;;;14.15;5.53;;;11.80;72.60;;;;;;5078263;28;20428;-74
2022/01/29 03:38:45;;;;;;;14.23;5.85;;;11.80;72.70;;;;;;5061333;28;20139;-73
2022/01/29 03:41:13;;;;;;;15.35;5.32;;;11.70;72.70;;;;;;5060875;28;20048;-72
2022/01/29 03:43:46;;;;;;;18.48;6.25;;;11.70;72.80;;;;;;5078111;28;20044;-74
2022/01/29 03:46:13;;;;;;;12.68;5.40;;;11.80;72.90;;;;;;5060166;28;20479;-74
2022/01/29 03:48:39;;;;;;;13.43;6.22;;;11.70;72.80;;;;;;5061078;28;20079;-72
2022/01/29 03:51:05;;;;;;;14.50;6.10;;;11.80;72.90;;;;;;5078212;28;20040;-74
2022/01/29 03:53:30;;;;;;;15.35;5.35;;;11.80;73.00;;;;;;5061407;28;20479;-74
2022/01/29 03:55:56;;;;;;;12.77;5.57;;;11.70;72.90;;;;;;5098221;28;20122;-74
2022/01/29 03:58:22;;;;;;;12.65;5.82;;;11.80;73.00;;;;;;5098054;28;20058;-72
2022/01/29 04:00:48;;;;;;;12.52;5.75;;;11.80;73.10;;;;;;5080121;28;20455;-74
2022/01/29 04:03:14;;;;;;;14.50;5.95;;;11.70;73.10;;;;;;5095646;28;20126;-74
2022/01/29 04:05:39;;;;;;;14.70;6.28;;;11.80;73.00;;;;;;5097541;28;20083;-73
2022/01/29 04:08:12;;;;;;;10.77;5.57;;;11.80;73.00;;;;;;5080441;28;20212;-75
2022/01/29 04:10:38;;;;;;;10.65;5.65;;;11.80;73.00;;;;;;5097994;28;20395;-75
2022/01/29 04:13:05;;;;;;;10.98;5.60;;;11.80;73.10;;;;;;5080565;28;20136;-75
2022/01/29 04:15:31;;;;;;;14.98;6.22;;;11.80;73.20;;;;;;5079427;28;20102;-72
2022/01/29 04:17:57;;;;;;;16.80;6.45;;;11.80;73.30;;;;;;5079460;28;20080;-73
2022/01/29 04:20:23;;;;;;;13.00;5.97;;;11.70;73.20;;;;;;5097313;28;20052;-75
2022/01/29 04:22:48;;;;;;;12.02;5.53;;;11.70;73.30;;;;;;5097339;28;20134;-74
2022/01/29 04:25:14;;;;;;;12.68;6.43;;;11.70;73.30;;;;;;5097426;28;20127;-75
2022/01/29 04:27:43;;;;;;;13.30;5.20;;;11.70;73.50;;;;;;5097622;28;20040;-75
2022/01/29 04:30:29;;;;;;;12.98;5.88;;;11.70;73.50;;;;;;5097190;28;20052;-73
2022/01/29 04:33:14;;;;;;;12.15;5.07;;;11.70;73.60;;;;;;5085106;28;20044;-75
2022/01/29 04:35:40;;;;;;;12.73;6.00;;;11.70;73.60;;;;;;5039960;28;20057;-76
2022/01/29 04:38:06;;;;;;;13.02;5.95;;;11.70;73.60;;;;;;5039654;28;20072;-74
2022/01/29 04:40:33;;;;;;;11.52;5.15;;;11.70;73.50;;;;;;5040029;28;20048;-74
2022/01/29 04:42:59;;;;;;;15.65;5.90;;;11.70;73.60;;;;;;5056845;28;20081;-74
2022/01/29 04:45:25;;;;;;;13.32;6.40;;;11.70;73.60;;;;;;5040151;28;20118;-73
2022/01/29 04:47:51;;;;;;;13.77;5.45;;;11.70;73.70;;;;;;5040123;28;20122;-73
2022/01/29 04:50:16;;;;;;;14.02;6.57;;;11.60;73.70;;;;;;5057021;28;20056;-72
2022/01/29 04:52:42;;;;;;;11.45;5.13;;;11.70;73.70;;;;;;5056741;28;20045;-74
2022/01/29 04:55:10;;;;;;;13.10;6.32;;;11.70;73.70;;;;;;5056404;28;20080;-76
2022/01/29 04:57:37;;;;;;;15.43;6.03;;;11.70;73.60;;;;;;5056941;28;20384;-74
2022/01/29 05:00:11;;;;;;;14.00;5.35;;;11.70;73.60;;;;;;5056599;28;20053;-73
2022/01/29 05:02:37;;;;;;;15.15;5.85;;;11.70;73.70;;;;;;5065270;28;20052;-73
2022/01/29 05:05:04;;;;;;;12.35;5.40;;;11.70;73.70;;;;;;5051592;28;20055;-75
2022/01/29 05:07:30;;;;;;;12.45;6.07;;;11.80;73.70;;;;;;5053867;28;20044;-73
2022/01/29 05:09:56;;;;;;;15.02;5.28;;;11.80;73.30;;;;;;5061943;28;20044;-74
2022/01/29 05:12:24;;;;;;;43.28;6.20;;;12.00;72.70;;;;;;5068985;28;20052;-73
2022/01/29 05:15:08;;;;;;;13.85;6.15;;;12.20;72.00;;;;;;5053544;28;20345;-71
2022/01/29 05:28:32;;;;;;;19.90;6.68;;;12.70;70.20;;;;;;5038101;28;20088;-71
2022/01/29 05:30:57;;;;;;;13.57;6.13;;;12.70;70.20;;;;;;5059416;28;20083;-74
2022/01/29 05:33:23;;;;;;;14.50;6.20;;;12.70;70.70;;;;;;5059154;28;20098;-74
2022/01/29 05:35:49;;;;;;;15.95;5.80;;;12.60;72.30;;;;;;5056252;28;20107;-79
2022/01/29 05:38:15;;;;;;;11.48;5.38;;;12.70;71.90;;;;;;5075275;28;20422;-75
2022/01/29 05:40:46;;;;;;;13.20;5.10;;;12.90;70.60;;;;;;5057875;28;20048;-75
2022/01/29 05:43:11;;;;;;;14.95;4.07;;;13.20;70.10;;;;;;5074988;28;20059;-75
2022/01/29 05:45:37;;;;;;;12.98;3.83;;;13.50;69.40;;;;;;5057985;28;20052;-73
2022/01/29 05:48:03;;;;;;;11.68;4.60;;;13.70;69.80;;;;;;5094857;28;20161;-74
2022/01/29 05:50:29;;;;;;;15.57;3.58;;;14.10;69.20;;;;;;5096041;28;20039;-74
2022/01/29 05:52:55;;;;;;;13.45;4.18;;;14.30;68.80;;;;;;5079065;28;20055;-72
2022/01/29 05:55:22;;;;;;;14.63;5.40;;;14.60;68.30;;;;;;5106859;28;20036;-72
2022/01/29 05:57:48;;;;;;;8.73;2.92;;;14.60;69.10;;;;;;5073648;28;20530;-73
2022/01/29 06:00:15;;;;;;;7.60;3.47;;;14.70;69.10;;;;;;5076740;28;20086;-73
2022/01/29 06:02:41;;;;;;;10.90;3.10;;;14.90;68.10;;;;;;5074923;28;20048;-73
2022/01/29 06:05:07;;;;;;;8.27;3.40;;;15.00;67.60;;;;;;5075339;28;20045;-72
2022/01/29 06:07:33;;;;;;;7.75;3.22;;;15.10;67.20;;;;;;5058121;28;20181;-73
2022/01/29 06:09:58;;;;;;;10.05;2.50;;;15.30;66.90;;;;;;5057885;28;20139;-74
2022/01/29 06:12:24;;;;;;;7.97;2.75;;;15.40;66.50;;;;;;5057580;28;20074;-75
2022/01/29 06:14:50;;;;;;;10.55;2.85;;;15.40;66.50;;;;;;5075376;28;20044;-72
2022/01/29 06:17:16;;;;;;;7.63;2.42;;;15.40;66.30;;;;;;5041025;28;20371;-73
2022/01/29 06:19:42;;;;;;;10.70;2.67;;;15.50;66.20;;;;;;5075107;28;20040;-73
2022/01/29 06:22:11;;;;;;;10.77;4.05;;;15.60;66.00;;;;;;5075168;28;20071;-73
2022/01/29 06:24:37;;;;;;;8.63;2.53;;;15.40;67.10;;;;;;5063294;28;20059;-73
2022/01/29 06:27:03;;;;;;;9.10;2.58;;;15.20;67.30;;;;;;5095083;28;20048;-74
2022/01/29 06:29:28;;;;;;;15.05;3.08;;;15.40;67.10;;;;;;5095096;28;20139;-74
2022/01/29 06:31:54;;;;;;;11.32;2.53;;;15.60;66.60;;;;;;5095185;28;20040;-74
2022/01/29 06:34:20;;;;;;;15.35;3.47;;;15.70;66.50;;;;;;5094715;28;20056;-73
2022/01/29 06:36:45;;;;;;;13.90;3.25;;;15.90;66.30;;;;;;5095387;28;20458;-74
2022/01/29 06:39:11;;;;;;;15.98;2.92;;;15.90;65.00;;;;;;5079889;28;20044;-75
2022/01/29 06:41:37;;;;;;;10.23;2.35;;;16.20;65.70;;;;;;5095014;28;20048;-73
2022/01/29 06:44:03;;;;;;;17.45;2.55;;;16.30;65.30;;;;;;5092852;28;20055;-74
2022/01/29 06:46:28;;;;;;;5.88;2.30;;;16.40;65.10;;;;;;5092655;28;20040;-74
2022/01/29 06:48:54;;;;;;;9.48;4.03;;;16.40;64.90;;;;;;5052333;28;20104;-74
2022/01/29 06:51:20;;;;;;;12.18;2.45;;;16.10;64.50;;;;;;5040498;28;20087;-75
2022/01/29 06:53:46;;;;;;;12.88;2.85;;;16.30;65.60;;;;;;5076512;28;20053;-75
2022/01/29 06:56:11;;;;;;;15.35;2.72;;;16.40;65.30;;;;;;5094718;28;20052;-85
2022/01/29 06:58:37;;;;;;;11.43;3.28;;;16.50;65.00;;;;;;5095016;28;20044;-73
2022/01/29 07:01:03;;;;;;;13.63;2.78;;;16.60;64.90;;;;;;5094966;28;20125;-73
2022/01/29 07:03:29;;;;;;;9.95;2.33;;;16.70;64.70;;;;;;5077505;28;20048;-75
2022/01/29 07:05:55;;;;;;;13.77;2.40;;;16.70;64.80;;;;;;5092363;28;20058;-76
2022/01/29 07:08:20;;;;;;;11.63;2.15;;;16.80;64.60;;;;;;5076777;28;20093;-75
2022/01/29 07:10:48;;;;;;;7.60;2.72;;;16.90;64.50;;;;;;5094197;28;20132;-74
2022/01/29 07:13:14;;;;;;;9.02;2.53;;;17.00;64.20;;;;;;5059831;28;20074;-76
2022/01/29 07:15:40;;;;;;;7.18;2.20;;;17.10;64.00;;;;;;5094131;28;20051;-75
2022/01/29 07:18:06;;;;;;;8.43;2.20;;;17.10;64.00;;;;;;5095490;28;20043;-74
2022/01/29 07:20:33;;;;;;;11.23;2.75;;;17.20;63.60;;;;;;5104277;28;20048;-75
2022/01/29 07:22:59;;;;;;;16.65;3.05;;;17.20;63.60;;;;;;5094601;28;20055;-76
2022/01/29 07:25:26;;;;;;;14.13;2.47;;;17.20;63.80;;;;;;5076677;28;20055;-78
2022/01/29 07:27:52;;;;;;;9.85;2.13;;;17.30;63.50;;;;;;5076633;28;20052;-77
2022/01/29 07:30:18;;;;;;;10.32;2.30;;;17.30;63.40;;;;;;5094393;28;20144;-77
2022/01/29 07:32:44;;;;;;;11.85;2.20;;;17.30;63.60;;;;;;5076667;28;20119;-78
2022/01/29 07:35:11;;;;;;;15.13;2.50;;;17.40;63.70;;;;;;5076611;28;20131;-77
2022/01/29 07:37:37;;;;;;;9.27;2.35;;;17.40;63.50;;;;;;5088972;28;20044;-77
2022/01/29 07:40:03;;;;;;;16.52;2.47;;;17.40;62.90;;;;;;5093650;28;20048;-77
2022/01/29 07:42:29;;;;;;;10.65;2.00;;;17.50;63.10;;;;;;5092844;28;20059;-79
2022/01/29 07:44:55;;;;;;;8.38;1.88;;;17.60;62.80;;;;;;5059417;28;20052;-78
2022/01/29 07:47:21;;;;;;;11.18;2.08;;;17.60;62.60;;;;;;5059701;28;20131;-78
2022/01/29 07:49:47;;;;;;;10.57;2.30;;;17.60;62.60;;;;;;5077294;28;20136;-75
2022/01/29 07:52:13;;;;;;;11.90;2.47;;;17.60;62.20;;;;;;5059438;28;20048;-78
2022/01/29 07:54:38;;;;;;;10.73;1.73;;;17.70;62.30;;;;;;5059108;28;20048;-77
2022/01/29 07:57:04;;;;;;;13.98;3.10;;;17.70;62.40;;;;;;5077212;28;20059;-75
2022/01/29 07:59:30;;;;;;;10.70;2.72;;;17.70;62.50;;;;;;5077625;28;20131;-79
2022/01/29 08:01:56;;;;;;;11.60;2.00;;;17.80;62.50;;;;;;5082141;28;20174;-79
2022/01/29 08:04:24;;;;;;;15.75;2.40;;;17.80;62.50;;;;;;5098106;28;20466;-78
2022/01/29 08:06:50;;;;;;;7.05;1.95;;;17.90;62.60;;;;;;5079754;28;20056;-74
2022/01/29 08:09:19;;;;;;;9.93;2.03;;;17.90;62.40;;;;;;5097754;28;20055;-78
2022/01/29 08:11:45;;;;;;;7.43;2.15;;;18.00;62.20;;;;;;5097019;28;20532;-75
2022/01/29 08:14:11;;;;;;;13.70;2.15;;;18.00;62.00;;;;;;5097934;28;20079;-78
2022/01/29 08:16:36;;;;;;;8.25;2.63;;;18.00;62.00;;;;;;5079654;28;20359;-79
2022/01/29 08:19:02;;;;;;;9.15;1.83;;;18.00;61.70;;;;;;5097564;28;20110;-76
2022/01/29 08:21:28;;;;;;;9.35;1.70;;;18.00;61.40;;;;;;5079454;28;20048;-79
2022/01/29 08:23:53;;;;;;;11.85;2.40;;;18.10;62.00;;;;;;5097452;28;20052;-76
2022/01/29 08:26:19;;;;;;;19.83;2.60;;;18.10;61.70;;;;;;5080232;28;20075;-76
2022/01/29 08:28:47;;;;;;;19.20;2.95;;;18.20;62.30;;;;;;5097169;28;20128;-77
2022/01/29 08:31:13;;;;;;;10.40;2.67;;;18.10;62.00;;;;;;5096840;28;20040;-76
2022/01/29 08:33:39;;;;;;;13.65;2.63;;;18.10;61.60;;;;;;5071229;28;20068;-77
2022/01/29 08:36:07;;;;;;;26.45;2.25;;;18.00;61.50;;;;;;5077004;28;20412;-77
2022/01/29 08:38:33;;;;;;;13.50;3.00;;;18.00;61.90;;;;;;5054154;28;20325;-75
2022/01/29 08:40:59;;;;;;;12.05;2.65;;;18.10;61.90;;;;;;5076601;28;20051;-75
2022/01/29 08:43:26;;;;;;;12.77;1.98;;;18.00;61.40;;;;;;5059357;28;20040;-80
2022/01/29 08:45:53;;;;;;;13.95;2.72;;;18.00;61.10;;;;;;5059348;28;20049;-77
2022/01/29 08:48:19;;;;;;;14.30;1.75;;;17.90;61.40;;;;;;5059302;28;20483;-79
2022/01/29 08:50:45;;;;;;;11.45;1.90;;;17.90;61.80;;;;;;5076181;28;20041;-81
2022/01/29 08:53:11;;;;;;;11.02;1.77;;;17.90;62.10;;;;;;5059531;28;20044;-79
2022/01/29 08:55:37;;;;;;;14.57;1.83;;;17.90;61.90;;;;;;5065281;28;20032;-78
2022/01/29 08:58:05;;;;;;;13.02;2.22;;;17.90;61.90;;;;;;5079009;28;20341;-77
2022/01/29 09:00:32;;;;;;;13.25;2.25;;;17.90;62.40;;;;;;5099765;28;20031;-79
2022/01/29 09:02:57;;;;;;;15.15;2.05;;;17.90;62.40;;;;;;5100806;28;20051;-75
2022/01/29 09:05:23;;;;;;;15.10;2.63;;;17.80;62.40;;;;;;5076641;28;20048;-78
2022/01/29 09:07:49;;;;;;;14.82;2.38;;;17.80;62.50;;;;;;5058933;28;20043;-76
2022/01/29 09:10:15;;;;;;;13.07;2.13;;;17.80;62.70;;;;;;5042649;28;20052;-77
2022/01/29 09:12:41;;;;;;;8.60;2.15;;;17.80;63.00;;;;;;5076639;28;20041;-75
2022/01/29 09:15:07;;;;;;;11.45;2.20;;;17.80;63.00;;;;;;5058504;28;20048;-77
2022/01/29 09:17:35;;;;;;;21.58;2.83;;;17.80;63.10;;;;;;5063629;28;20040;-76
2022/01/29 09:20:01;;;;;;;18.70;3.05;;;17.90;63.00;;;;;;5068136;28;20054;-76
2022/01/29 09:22:26;;;;;;;21.33;2.28;;;17.80;63.10;;;;;;5095468;28;20524;-76
2022/01/29 09:24:52;;;;;;;13.52;1.80;;;17.80;63.10;;;;;;5075092;28;20040;-74
2022/01/29 09:27:18;;;;;;;19.77;2.80;;;17.80;63.20;;;;;;5076044;28;20467;-76
2022/01/29 09:29:44;;;;;;;13.88;2.25;;;17.80;63.20;;;;;;5076151;28;20044;-72
2022/01/29 09:32:09;;;;;;;17.33;2.50;;;17.90;63.00;;;;;;5058320;28;20452;-73
2022/01/29 09:34:35;;;;;;;17.27;2.78;;;17.80;62.90;;;;;;5075388;28;20060;-77
2022/01/29 09:37:00;;;;;;;19.15;3.20;;;17.80;62.90;;;;;;5075482;28;20056;-74
2022/01/29 09:39:26;;;;;;;17.05;2.78;;;17.70;62.90;;;;;;5075781;28;20048;-75
2022/01/29 09:41:55;;;;;;;11.60;2.15;;;17.70;62.80;;;;;;5058371;28;20436;-77
2022/01/29 09:44:22;;;;;;;16.25;2.30;;;17.60;62.40;;;;;;5075675;28;20044;-76
2022/01/29 09:46:51;;;;;;;16.60;2.65;;;17.50;62.20;;;;;;5075652;28;20557;-75
2022/01/29 09:49:17;;;;;;;14.23;2.45;;;17.50;62.10;;;;;;5075351;28;20044;-76
2022/01/29 09:51:43;;;;;;;9.98;2.00;;;17.40;62.20;;;;;;5058090;28;20051;-77
2022/01/29 09:54:10;;;;;;;10.90;1.90;;;17.30;62.30;;;;;;5058712;28;20123;-76
2022/01/29 09:56:36;;;;;;;14.68;1.92;;;17.20;62.40;;;;;;5041464;28;20060;-75
2022/01/29 09:59:02;;;;;;;7.93;1.52;;;17.20;62.60;;;;;;5075177;28;20055;-77
2022/01/29 10:01:28;;;;;;;7.40;1.70;;;17.10;62.60;;;;;;5057729;28;20070;-75
2022/01/29 10:04:05;;;;;;;7.20;1.38;;;17.00;62.70;;;;;;5075519;28;20049;-76
2022/01/29 10:06:31;;;;;;;8.50;1.75;;;17.00;62.70;;;;;;5058139;28;20059;-77
2022/01/29 10:08:59;;;;;;;7.13;1.20;;;16.90;62.80;;;;;;5075419;28;20422;-78
2022/01/29 10:11:27;;;;;;;6.50;1.20;;;16.90;62.90;;;;;;5057979;28;20530;-77
2022/01/29 10:14:01;;;;;;;6.90;1.15;;;16.90;63.00;;;;;;5060136;28;20048;-76
2022/01/29 10:16:29;;;;;;;8.20;1.42;;;16.80;63.00;;;;;;5095351;28;20052;-77
2022/01/29 10:19:11;;;;;;;7.57;1.45;;;16.80;63.10;;;;;;5069427;28;20059;-76
2022/01/29 10:21:47;;;;;;;5.53;1.05;;;16.70;62.90;;;;;;5074022;28;20056;-76
2022/01/29 10:24:18;;;;;;;4.55;1.33;;;16.70;63.20;;;;;;5075247;28;20333;-76
2022/01/29 10:26:50;;;;;;;6.95;1.40;;;16.60;63.10;;;;;;5075038;28;20052;-76
2022/01/29 10:29:20;;;;;;;6.15;1.35;;;16.60;63.20;;;;;;5075169;28;20433;-76
2022/01/29 10:31:51;;;;;;;8.52;1.65;;;16.50;63.20;;;;;;5057822;28;20071;-77
2022/01/29 10:34:20;;;;;;;5.15;1.20;;;16.50;63.80;;;;;;5057015;28;20451;-74
2022/01/29 10:37:06;;;;;;;6.57;1.42;;;16.50;63.30;;;;;;5070816;28;20498;-75
2022/01/29 10:39:32;;;;;;;6.43;1.20;;;16.50;63.30;;;;;;5077372;28;20048;-76
2022/01/29 10:41:57;;;;;;;8.20;1.65;;;16.40;63.40;;;;;;5095724;28;20051;-74
2022/01/29 10:44:24;;;;;;;4.28;1.20;;;16.40;63.40;;;;;;5095257;28;20127;-75
2022/01/29 10:46:52;;;;;;;6.82;1.27;;;16.40;63.50;;;;;;5095223;28;20050;-75
2022/01/29 10:49:30;;;;;;;7.00;1.45;;;16.40;63.60;;;;;;5077648;28;20051;-75
2022/01/29 10:52:09;;;;;;;7.22;1.40;;;16.40;63.60;;;;;;5077041;28;20451;-77
2022/01/29 10:54:37;;;;;;;6.70;1.60;;;16.30;63.60;;;;;;5077432;28;20107;-77
2022/01/29 10:57:04;;;;;;;5.43;1.30;;;16.30;64.00;;;;;;5077327;28;20052;-77
2022/01/29 10:59:33;;;;;;;5.90;1.42;;;16.20;63.80;;;;;;5095048;28;20085;-77
2022/01/29 11:02:04;;;;;;;5.80;1.55;;;16.20;63.80;;;;;;5094948;28;20044;-77
2022/01/29 11:04:31;;;;;;;6.97;1.25;;;16.20;63.80;;;;;;5060332;28;20048;-76
2022/01/29 11:07:01;;;;;;;7.53;1.58;;;16.20;63.80;;;;;;5094985;28;20078;-76
2022/01/29 11:09:29;;;;;;;6.05;1.38;;;16.20;63.80;;;;;;5094968;28;20443;-75
2022/01/29 11:11:57;;;;;;;4.43;1.33;;;16.20;63.80;;;;;;5074987;28;20048;-76
2022/01/29 11:14:24;;;;;;;5.65;1.40;;;16.20;63.90;;;;;;5074825;28;20048;-77
2022/01/29 11:16:52;;;;;;;8.38;1.23;;;16.20;63.90;;;;;;5076107;28;20123;-77
2022/01/29 11:19:18;;;;;;;5.80;1.17;;;16.20;63.80;;;;;;5067712;28;20101;-77
2022/01/29 11:21:47;;;;;;;4.80;1.15;;;16.10;63.80;;;;;;5098657;28;20123;-75
2022/01/29 11:24:17;;;;;;;7.13;1.58;;;16.10;63.70;;;;;;5077328;28;20045;-76
2022/01/29 11:26:45;;;;;;;6.88;1.35;;;16.10;63.90;;;;;;5060988;28;20058;-75
2022/01/29 11:29:27;;;;;;;2.90;1.20;;;16.10;63.90;;;;;;5078382;28;20139;-76
2022/01/29 11:32:27;;;;;;;6.00;1.30;;;16.10;63.90;;;;;;5078348;28;20056;-76
2022/01/29 11:35:12;;;;;;;5.80;1.65;;;16.10;63.80;;;;;;5054239;28;20102;-75
2022/01/29 11:38:03;;;;;;;3.80;0.73;;;16.10;63.90;;;;;;5098904;28;20399;-77
2022/01/29 11:40:44;;;;;;;6.82;1.48;;;16.10;63.90;;;;;;5098326;28;20044;-76
2022/01/29 11:43:22;;;;;;;5.30;1.30;;;16.00;64.00;;;;;;5098515;28;20043;-75
2022/01/29 11:45:51;;;;;;;5.03;1.48;;;16.00;64.00;;;;;;5081026;28;20048;-75
2022/01/29 11:48:22;;;;;;;7.28;1.15;;;16.00;64.00;;;;;;5098114;28;20043;-77
2022/01/29 11:50:48;;;;;;;6.85;1.23;;;16.00;63.90;;;;;;5080391;28;20094;-76
2022/01/29 11:53:17;;;;;;;4.25;1.30;;;16.00;63.90;;;;;;5098236;28;20489;-77
2022/01/29 11:55:49;;;;;;;4.47;0.90;;;16.00;64.00;;;;;;5098120;28;20044;-77
2022/01/29 11:58:17;;;;;;;5.03;1.30;;;16.00;63.90;;;;;;5097939;28;20367;-76
2022/01/29 12:00:58;;;;;;;6.28;1.50;;;16.00;63.80;;;;;;5097995;28;20040;-75
2022/01/29 12:03:51;;;;;;;4.25;1.40;;;16.00;63.80;;;;;;5098207;28;20052;-76
2022/01/29 12:06:27;;;;;;;7.72;1.13;;;15.90;63.70;;;;;;5077080;28;20060;-75
2022/01/29 12:09:20;;;;;;;3.75;1.40;;;16.00;63.80;;;;;;5098041;28;20371;-75
2022/01/29 12:12:26;;;;;;;4.88;1.45;;;16.00;63.70;;;;;;5079543;28;20439;-76
2022/01/29 12:15:18;;;;;;;3.50;0.75;;;15.90;63.60;;;;;;5077634;28;20336;-77
2022/01/29 12:18:02;;;;;;;3.55;0.77;;;15.90;63.80;;;;;;5060610;28;20059;-76
2022/01/29 12:20:28;;;;;;;5.35;1.10;;;15.90;63.60;;;;;;5077367;28;20049;-76
2022/01/29 12:23:05;;;;;;;8.23;1.80;;;15.90;63.50;;;;;;5059617;28;20459;-77
2022/01/29 12:25:31;;;;;;;6.05;1.40;;;15.90;63.50;;;;;;5077194;28;20105;-76
2022/01/29 12:27:59;;;;;;;6.32;1.58;;;15.90;63.60;;;;;;5059100;28;20048;-75
2022/01/29 12:30:39;;;;;;;4.78;1.67;;;15.90;63.60;;;;;;5077277;28;20048;-76
2022/01/29 12:33:16;;;;;;;7.07;1.60;;;15.90;63.50;;;;;;5076906;28;20467;-76
2022/01/29 12:35:41;;;;;;;5.68;1.35;;;15.90;63.50;;;;;;5077271;28;20127;-77
2022/01/29 12:38:10;;;;;;;5.47;1.38;;;15.90;63.60;;;;;;5060294;28;20202;-77
2022/01/29 12:40:39;;;;;;;6.90;1.90;;;15.90;63.50;;;;;;5059468;28;20068;-77
2022/01/29 12:43:26;;;;;;;8.25;2.15;;;15.80;63.40;;;;;;5076633;28;20491;-76
2022/01/29 12:45:54;;;;;;;4.10;1.10;;;15.80;63.40;;;;;;5059516;28;20129;-75
2022/01/29 12:48:21;;;;;;;7.18;1.65;;;15.80;63.50;;;;;;5042747;28;20117;-73
2022/01/29 12:50:47;;;;;;;6.05;1.65;;;15.80;63.40;;;;;;5076854;28;20044;-75
2022/01/29 12:53:19;;;;;;;6.25;1.55;;;15.80;63.50;;;;;;5076692;28;20401;-77
2022/01/29 12:56:06;;;;;;;7.00;1.60;;;15.80;63.50;;;;;;5076428;28;20040;-75